This is the latest recevied weather packets stored in our database for station/object K1RFS. If no packets are shown the sender has not sent any weather packets the latest 10 day(s).
| Time | Temp. | Humidity | Pressure | Rain* | Wind** | Luminosity | Snow |
|---|---|---|---|---|---|---|---|
| 1787625743 | 23.33° C | 51% | 1008 hPa | 0 mm | - | 0 W/m² | - |
| 1787625438 | 23.33° C | 50% | 1008.1 hPa | 0 mm | - | 0 W/m² | - |
| 1787625135 | 23.33° C | 51% | 1008 hPa | 0 mm | - | 0 W/m² | - |
| 1787624831 | 24.44° C | 49% | 1007.9 hPa | 0 mm | - | 0 W/m² | - |
| 1787624525 | 25.56° C | 39% | 1008.1 hPa | 0 mm | - | 0 W/m² | - |
| 1787624220 | 25.56° C | 40% | 1007.8 hPa | 0 mm | - | 0 W/m² | - |
| 1787623916 | 26.11° C | 39% | 1007.7 hPa | 0 mm | - | 0 W/m² | - |
| 1787623609 | 27.22° C | 33% | 1007.4 hPa | 0 mm | - | 0 W/m² | - |
| 1787623304 | 27.22° C | 32% | 1007.2 hPa | 0 mm | - | 0 W/m² | - |
| 1787623004 | 26.67° C | 34% | 1007 hPa | 0 mm | - | 0 W/m² | - |
| 1787622700 | 26.67° C | 34% | 1006.5 hPa | 0 mm | - | 0 W/m² | - |
| 1787622397 | 26.67° C | 33% | 1006 hPa | 0 mm | - | 1 W/m² | - |
| 1787622096 | 26.67° C | 33% | 1006 hPa | 0 mm | - | 1 W/m² | - |
| 1787621791 | 27.22° C | 32% | 1005.6 hPa | 0 mm | - | 1 W/m² | - |
| 1787621491 | 27.78° C | 30% | 1005.5 hPa | 0 mm | - | 1 W/m² | - |
| 1787621187 | 28.33° C | 28% | 1005.3 hPa | 0 mm | - | 2 W/m² | - |
| 1787620883 | 28.89° C | 26% | 1005.2 hPa | 0 mm | - | 3 W/m² | - |
| 1787620583 | 29.44° C | 24% | 1004.8 hPa | 0 mm | - | 5 W/m² | - |
| 1787620279 | 29.44° C | 24% | 1004.9 hPa | 0 mm | - | 8 W/m² | - |
| 1787619975 | 28.89° C | 24% | 1005 hPa | 0 mm | - | 11 W/m² | - |
| 1787619669 | 28.89° C | 26% | 1005.2 hPa | 0 mm | - | 13 W/m² | - |
| 1787619365 | 28.89° C | 26% | 1005.3 hPa | 0 mm | - | 14 W/m² | - |
| 1787619063 | 28.89° C | 25% | 1005.4 hPa | 0 mm | - | 12 W/m² | - |
| 1787618759 | 28.33° C | 26% | 1005.5 hPa | 0 mm | - | 15 W/m² | - |
| 1787618456 | 28.89° C | 26% | 1005.5 hPa | 0 mm | - | 18 W/m² | - |
* Rain latest hour (hover to see other rain measurements)
** Current wind speed in m/s (hover to see current wind gust speed)